Time;durP1;ratioP1;P1;durP2;ratioP2;P2;SDS_P1;SDS_P2;PMS_P1;PMS_P2;Temp;Humidity;BMP_temperature;BMP_pressure;BME280_temperature;BME280_humidity;BME280_pressure;Samples;Min_cycle;Max_cycle;Signal;HPM_P1;HPM_P2
2022/10/30 00:01:33;;;;;;;12.57;7.60;;;;;;;13.14;96.54;101730.53;6219988;23;20017;-75
2022/10/30 00:03:59;;;;;;;15.05;8.05;;;;;;;13.12;97.28;101730.97;6219091;23;20056;-75
2022/10/30 00:06:25;;;;;;;13.07;8.05;;;;;;;13.10;96.90;101737.91;6219656;23;20378;-76
2022/10/30 00:08:52;;;;;;;12.07;8.20;;;;;;;13.10;97.35;101733.31;6219599;23;20080;-75
2022/10/30 00:11:18;;;;;;;22.88;8.05;;;;;;;13.07;97.17;101736.09;6220114;23;20052;-76
2022/10/30 00:13:45;;;;;;;19.15;7.60;;;;;;;13.04;97.59;101732.38;6220034;23;20076;-76
2022/10/30 00:16:11;;;;;;;13.05;8.13;;;;;;;13.02;97.53;101740.81;6192669;23;20053;-75
2022/10/30 00:18:40;;;;;;;13.25;8.15;;;;;;;12.99;97.20;101738.25;6219232;23;20447;-75
2022/10/30 00:21:12;;;;;;;15.65;7.97;;;;;;;12.99;97.99;101746.28;6219716;23;20453;-75
2022/10/30 00:23:45;;;;;;;17.73;8.55;;;;;;;12.97;97.83;101745.97;6193568;23;20009;-75
2022/10/30 00:26:12;;;;;;;15.77;7.95;;;;;;;12.93;97.42;101738.06;6219830;23;20013;-75
2022/10/30 00:28:39;;;;;;;17.45;9.23;;;;;;;12.92;97.80;101735.81;6220011;23;20040;-75
2022/10/30 00:31:05;;;;;;;10.55;7.65;;;;;;;12.85;97.70;101734.09;6219535;23;20063;-75
2022/10/30 00:33:32;;;;;;;18.05;8.35;;;;;;;12.82;98.02;101724.28;6219339;23;20013;-75
2022/10/30 00:35:59;;;;;;;15.20;7.95;;;;;;;12.81;97.61;101730.06;6219356;23;20482;-75
2022/10/30 00:38:25;;;;;;;18.88;8.68;;;;;;;12.80;98.34;101725.88;6220085;23;20371;-75
2022/10/30 00:40:52;;;;;;;13.60;7.50;;;;;;;12.78;97.55;101726.34;6219560;23;20024;-75
2022/10/30 00:43:34;;;;;;;13.77;8.45;;;;;;;12.77;97.95;101732.13;6220124;23;20047;-75
2022/10/30 00:46:11;;;;;;;19.80;8.43;;;;;;;12.75;98.00;101731.78;6192758;23;20119;-75
2022/10/30 00:48:38;;;;;;;15.20;8.30;;;;;;;12.73;98.56;101731.47;6186995;23;20053;-75
2022/10/30 00:51:09;;;;;;;14.98;9.32;;;;;;;12.70;98.23;101725.06;6189501;23;20045;-75
2022/10/30 00:53:38;;;;;;;21.20;8.47;;;;;;;12.66;97.94;101737.78;6189866;23;20104;-76
2022/10/30 00:56:07;;;;;;;13.23;7.97;;;;;;;12.56;98.02;101738.84;6185502;23;20434;-75
2022/10/30 00:58:41;;;;;;;15.57;7.45;;;;;;;12.50;97.81;101733.31;6187357;23;20025;-75
2022/10/30 01:01:14;;;;;;;18.88;8.25;;;;;;;12.52;98.49;101728.28;6187849;23;20028;-75
2022/10/30 01:03:40;;;;;;;17.02;8.35;;;;;;;12.52;98.49;101732.88;6189462;23;20014;-75
2022/10/30 01:06:10;;;;;;;11.75;8.50;;;;;;;12.48;98.18;101727.63;6188643;23;20471;-75
2022/10/30 01:08:37;;;;;;;15.73;8.52;;;;;;;12.48;98.71;101732.97;6187650;23;20435;-75
2022/10/30 01:11:05;;;;;;;18.02;8.30;;;;;;;12.46;99.09;101732.66;6189500;23;20444;-75
2022/10/30 01:13:33;;;;;;;15.90;8.80;;;;;;;12.46;99.03;101739.94;6189682;23;20017;-75
2022/10/30 01:16:18;;;;;;;14.95;8.40;;;;;;;12.44;99.26;101737.69;6189320;23;20113;-75
2022/10/30 01:19:12;;;;;;;14.13;8.18;;;;;;;12.42;98.79;101737.34;6188917;23;20085;-75
2022/10/30 01:22:13;;;;;;;14.60;8.02;;;;;;;12.31;98.31;101736.94;6187919;23;20025;-75
2022/10/30 01:25:05;;;;;;;17.55;8.45;;;;;;;12.29;98.78;101740.03;6187679;23;20092;-75
2022/10/30 01:27:50;;;;;;;14.30;8.55;;;;;;;12.28;98.96;101733.22;6187762;23;20021;-75
2022/10/30 01:30:46;;;;;;;10.73;8.10;;;;;;;12.26;99.19;101740.91;6187738;23;20053;-75
2022/10/30 01:33:28;;;;;;;13.55;8.32;;;;;;;12.24;98.62;101737.91;6187408;23;20109;-75
2022/10/30 01:36:12;;;;;;;16.02;7.85;;;;;;;12.18;98.93;101733.53;6187444;23;20017;-75
2022/10/30 01:38:46;;;;;;;11.30;8.15;;;;;;;12.17;99.29;101740.78;6187481;23;20032;-75
2022/10/30 01:41:13;;;;;;;17.98;8.52;;;;;;;12.15;99.38;101732.44;6187475;23;20482;-75
2022/10/30 01:43:45;;;;;;;15.50;8.82;;;;;;;12.15;99.74;101737.03;6187609;23;20410;-75
2022/10/30 01:46:39;;;;;;;13.95;9.27;;;;;;;12.14;99.40;101744.28;6186491;23;20053;-76
2022/10/30 01:49:38;;;;;;;24.17;9.07;;;;;;;12.14;99.54;101746.22;6186985;23;20017;-76
2022/10/30 01:52:38;;;;;;;13.88;9.07;;;;;;;12.10;99.25;101758.91;6187591;23;20022;-75
2022/10/30 01:55:41;;;;;;;15.43;9.70;;;;;;;12.09;99.23;101755.50;6187338;23;20025;-75
2022/10/30 01:58:31;;;;;;;18.55;9.55;;;;;;;12.04;99.33;101761.34;6187077;23;20048;-75
2022/10/30 02:00:59;;;;;;;16.73;8.70;;;;;;;12.01;99.95;101751.53;6186701;23;20017;-75
2022/10/30 02:03:28;;;;;;;15.90;9.27;;;;;;;11.98;99.72;101745.13;6187331;23;20024;-75
2022/10/30 02:05:54;;;;;;;15.85;8.93;;;;;;;11.97;99.50;101757.00;6187008;23;20028;-75
2022/10/30 02:08:22;;;;;;;15.30;9.25;;;;;;;11.97;99.83;101762.31;6187349;23;20419;-75
2022/10/30 02:10:51;;;;;;;12.18;9.45;;;;;;;11.93;98.98;101760.94;6187176;23;20463;-75
2022/10/30 02:13:29;;;;;;;16.75;8.52;;;;;;;11.87;99.10;101750.03;6186951;23;20085;-76
2022/10/30 02:15:58;;;;;;;11.35;8.32;;;;;;;11.84;99.04;101750.13;6185477;23;20022;-76
2022/10/30 02:18:24;;;;;;;14.38;8.48;;;;;;;11.81;99.20;101749.03;6187170;23;20025;-75
2022/10/30 02:20:52;;;;;;;16.52;9.23;;;;;;;11.80;99.74;101752.88;6187067;23;20073;-76
2022/10/30 02:23:21;;;;;;;17.10;8.77;;;;;;;11.77;99.47;101753.72;6187307;23;20072;-75
2022/10/30 02:25:48;;;;;;;11.68;8.57;;;;;;;11.76;99.55;101749.53;6186882;23;20112;-75
2022/10/30 02:28:15;;;;;;;14.55;8.60;;;;;;;11.75;99.34;101756.03;6187483;23;20072;-75
2022/10/30 02:30:44;;;;;;;14.18;8.38;;;;;;;11.74;99.67;101754.53;6187556;23;20033;-76
2022/10/30 02:33:11;;;;;;;13.02;8.20;;;;;;;11.74;99.22;101754.53;6188043;23;20451;-75
2022/10/30 02:35:37;;;;;;;11.27;8.88;;;;;;;11.71;99.54;101758.03;6188677;23;20077;-75
2022/10/30 02:38:04;;;;;;;14.18;9.00;;;;;;;11.70;99.15;101759.97;6188081;23;20041;-75
2022/10/30 02:40:30;;;;;;;12.57;8.25;;;;;;;11.66;99.82;101764.63;6190343;23;20017;-76
2022/10/30 02:42:57;;;;;;;14.02;8.55;;;;;;;11.62;99.05;101757.91;6188012;23;20029;-76
2022/10/30 02:45:23;;;;;;;13.10;8.60;;;;;;;11.58;99.17;101757.28;6189841;23;20041;-76
2022/10/30 02:47:50;;;;;;;12.93;8.15;;;;;;;11.57;99.02;101764.53;6187983;23;20056;-75
2022/10/30 02:50:17;;;;;;;14.23;8.27;;;;;;;11.53;99.06;101757.78;6190296;23;20084;-75
2022/10/30 02:52:43;;;;;;;12.98;8.30;;;;;;;11.52;99.47;101754.38;6188644;23;20022;-75
2022/10/30 02:55:10;;;;;;;16.13;8.93;;;;;;;11.53;99.83;101755.13;6188000;23;20022;-75
2022/10/30 02:57:37;;;;;;;17.95;8.98;;;;;;;11.54;99.82;101756.63;6162916;23;20425;-75
2022/10/30 03:00:05;;;;;;;18.73;9.00;;;;;;;11.47;99.67;101757.53;6188180;23;20155;-76
2022/10/30 03:02:32;;;;;;;13.75;8.60;;;;;;;11.45;100.00;101761.81;6190398;23;20084;-75
2022/10/30 03:04:58;;;;;;;13.60;8.98;;;;;;;11.46;100.00;101758.72;6187798;23;20348;-75
2022/10/30 03:07:25;;;;;;;11.52;9.00;;;;;;;11.47;100.00;101762.88;6188489;23;20044;-75
2022/10/30 03:09:53;;;;;;;16.63;9.23;;;;;;;11.46;99.57;101755.28;6189930;23;20037;-75
2022/10/30 03:12:20;;;;;;;14.40;9.38;;;;;;;11.46;99.89;101757.97;6187681;23;20479;-75
2022/10/30 03:14:46;;;;;;;17.23;9.57;;;;;;;11.43;99.64;101762.22;6190451;23;20021;-75
2022/10/30 03:17:13;;;;;;;13.18;8.90;;;;;;;11.39;100.00;101764.22;6188299;23;20021;-75
2022/10/30 03:19:42;;;;;;;19.38;9.70;;;;;;;11.38;100.00;101759.31;6190210;23;20017;-75
2022/10/30 03:22:08;;;;;;;14.70;9.10;;;;;;;11.38;100.00;101760.06;6189841;23;20050;-75
2022/10/30 03:24:37;;;;;;;20.13;9.60;;;;;;;11.34;100.00;101754.81;6188309;23;20082;-75
2022/10/30 03:27:03;;;;;;;11.02;8.60;;;;;;;11.34;100.00;101764.72;6187399;23;20108;-75
2022/10/30 03:29:30;;;;;;;12.75;9.38;;;;;;;11.31;100.00;101766.31;6188742;23;20334;-75
2022/10/30 03:31:56;;;;;;;14.38;8.75;;;;;;;11.30;100.00;101772.06;6189579;23;20472;-75
2022/10/30 03:34:27;;;;;;;13.25;8.65;;;;;;;11.29;100.00;101771.31;6187938;23;20053;-75
2022/10/30 03:36:53;;;;;;;14.73;8.57;;;;;;;11.32;100.00;101773.16;6187825;23;20104;-76
2022/10/30 03:39:21;;;;;;;16.80;8.57;;;;;;;11.30;100.00;101772.81;6188213;23;20411;-76
2022/10/30 03:41:47;;;;;;;14.73;9.07;;;;;;;11.30;100.00;101774.72;6186862;23;20017;-76
2022/10/30 03:44:14;;;;;;;18.70;9.82;;;;;;;11.25;100.00;101780.56;6187761;23;20021;-75
2022/10/30 03:46:40;;;;;;;13.82;8.90;;;;;;;11.24;100.00;101782.47;6194014;23;20071;-75
2022/10/30 03:49:27;;;;;;;15.55;9.63;;;;;;;11.23;100.00;101769.56;6219046;23;20099;-75
2022/10/30 03:51:55;;;;;;;19.35;9.55;;;;;;;11.20;100.00;101768.50;6192636;23;20100;-76
2022/10/30 03:54:23;;;;;;;15.52;9.43;;;;;;;11.18;100.00;101772.75;6192782;23;20040;-75
2022/10/30 03:56:50;;;;;;;10.75;9.07;;;;;;;11.19;100.00;101769.69;6192282;23;20017;-75
2022/10/30 03:59:17;;;;;;;12.68;9.02;;;;;;;11.18;100.00;101772.75;6192813;23;20355;-75
2022/10/30 04:01:57;;;;;;;17.02;9.18;;;;;;;11.16;100.00;101773.19;6192627;23;20112;-75
2022/10/30 04:04:23;;;;;;;14.35;8.38;;;;;;;11.14;100.00;101769.44;6193248;23;20021;-75
2022/10/30 04:06:50;;;;;;;17.95;9.23;;;;;;;11.13;100.00;101774.00;6192655;23;20380;-75
2022/10/30 04:09:17;;;;;;;16.23;8.93;;;;;;;11.13;100.00;101770.59;6193275;23;20021;-75
2022/10/30 04:11:44;;;;;;;11.35;8.80;;;;;;;11.11;100.00;101772.94;6192395;23;20023;-76
2022/10/30 04:14:10;;;;;;;13.93;8.43;;;;;;;11.08;100.00;101763.84;6192636;23;20058;-76
2022/10/30 04:16:37;;;;;;;17.73;8.93;;;;;;;11.10;100.00;101771.44;6193141;23;20024;-76
2022/10/30 04:19:03;;;;;;;20.63;8.50;;;;;;;11.09;100.00;101775.25;6192542;23;20021;-75
2022/10/30 04:21:30;;;;;;;15.00;9.50;;;;;;;11.06;100.00;101770.78;6193000;23;20098;-76
2022/10/30 04:23:57;;;;;;;12.98;8.88;;;;;;;11.01;100.00;101766.69;6219549;23;20075;-75
2022/10/30 04:26:27;;;;;;;20.70;9.23;;;;;;;10.99;100.00;101763.69;6192343;23;20027;-75
2022/10/30 04:28:53;;;;;;;16.90;9.15;;;;;;;10.97;100.00;101753.44;6219702;23;20016;-76
2022/10/30 04:31:20;;;;;;;20.63;9.90;;;;;;;10.97;100.00;101752.69;6193362;23;20029;-75
2022/10/30 04:33:47;;;;;;;19.88;9.73;;;;;;;10.98;100.00;101759.53;6220209;23;20014;-75
2022/10/30 04:36:16;;;;;;;12.23;8.48;;;;;;;10.97;100.00;101764.09;6193045;23;20148;-75
2022/10/30 04:38:44;;;;;;;13.32;8.70;;;;;;;10.97;100.00;101764.09;6220149;23;20017;-75
2022/10/30 04:41:11;;;;;;;13.68;9.05;;;;;;;10.94;100.00;101759.59;6191840;23;20016;-75
2022/10/30 04:43:56;;;;;;;20.70;8.73;;;;;;;10.92;100.00;101755.88;6192955;23;20048;-76
2022/10/30 04:46:22;;;;;;;17.33;9.45;;;;;;;10.93;100.00;101758.09;6192758;23;20391;-75
2022/10/30 04:48:56;;;;;;;17.75;9.05;;;;;;;10.92;100.00;101758.53;6192329;23;20021;-75
2022/10/30 04:51:23;;;;;;;12.55;8.85;;;;;;;10.85;100.00;101767.44;6219815;23;20017;-75
2022/10/30 04:53:50;;;;;;;12.30;8.35;;;;;;;10.82;100.00;101752.28;6191691;23;20121;-75
2022/10/30 04:56:16;;;;;;;13.73;8.88;;;;;;;10.81;100.00;101763.34;6192561;23;20017;-75
2022/10/30 04:58:43;;;;;;;16.30;9.02;;;;;;;10.81;100.00;101763.34;6219819;23;20017;-75
2022/10/30 05:01:09;;;;;;;12.80;8.55;;;;;;;10.79;100.00;101771.03;6192485;23;20017;-75
2022/10/30 05:03:36;;;;;;;16.92;9.15;;;;;;;10.78;100.00;101769.53;6192863;23;20032;-75
2022/10/30 05:06:21;;;;;;;14.32;8.77;;;;;;;10.77;100.00;101765.38;6192273;23;20053;-75
2022/10/30 05:08:48;;;;;;;14.90;8.85;;;;;;;10.71;100.00;101775.00;6192366;23;20071;-75
2022/10/30 05:11:30;;;;;;;15.27;9.07;;;;;;;10.64;100.00;101779.31;6192566;23;20506;-75
2022/10/30 05:13:57;;;;;;;15.98;8.80;;;;;;;10.64;100.00;101774.00;6192321;23;20028;-75
2022/10/30 05:16:24;;;;;;;16.33;8.82;;;;;;;10.65;100.00;101780.06;6192725;23;20017;-75
2022/10/30 05:18:52;;;;;;;11.85;9.00;;;;;;;10.61;100.00;101776.75;6192122;23;20044;-75
2022/10/30 05:21:20;;;;;;;10.18;8.77;;;;;;;10.60;100.00;101777.91;6192774;23;20440;-75
2022/10/30 05:23:46;;;;;;;21.40;9.15;;;;;;;10.57;100.00;101768.81;6192125;23;20024;-75
2022/10/30 05:26:13;;;;;;;17.63;9.13;;;;;;;10.53;100.00;101776.13;6192834;23;20119;-75
2022/10/30 05:28:41;;;;;;;17.83;8.95;;;;;;;10.56;100.00;101777.22;6192825;23;20052;-76
2022/10/30 05:31:07;;;;;;;16.08;9.05;;;;;;;10.53;100.00;101776.13;6219387;23;20017;-75
2022/10/30 05:34:00;;;;;;;15.80;9.60;;;;;;;10.54;100.00;101774.97;6183822;23;20024;-75
2022/10/30 05:36:31;;;;;;;;;;;;;;;10.50;100.00;101773.56;6193204;23;20083;-75
2022/10/30 05:38:58;;;;;;;14.05;8.15;;;;;;;10.35;100.00;101765.88;6191866;23;20372;-75
2022/10/30 05:41:36;;;;;;;14.32;8.93;;;;;;;10.33;100.00;101762.13;6192671;23;20029;-75
2022/10/30 05:44:02;;;;;;;9.48;8.40;;;;;;;10.35;100.00;101771.22;6192201;23;20027;-75
2022/10/30 05:46:30;;;;;;;14.82;9.15;;;;;;;10.33;100.00;101765.56;6192384;23;20499;-75
2022/10/30 05:49:06;;;;;;;13.93;8.63;;;;;;;10.33;100.00;101770.13;6192044;23;20021;-75
2022/10/30 05:51:32;;;;;;;13.77;8.32;;;;;;;10.29;100.00;101769.44;6192588;23;20435;-75
2022/10/30 05:54:07;;;;;;;15.18;9.38;;;;;;;10.25;100.00;101761.53;6192366;23;20449;-75
2022/10/30 05:56:36;;;;;;;15.23;8.85;;;;;;;10.24;100.00;101757.38;6192200;23;20120;-75
2022/10/30 05:59:03;;;;;;;19.38;8.98;;;;;;;10.25;100.00;101756.22;6167352;23;20056;-75
2022/10/30 06:01:29;;;;;;;21.15;9.77;;;;;;;10.30;100.00;101754.97;6219453;23;20095;-75
2022/10/30 06:03:59;;;;;;;15.90;10.13;;;;;;;10.36;100.00;101756.00;6191656;23;20025;-75
2022/10/30 06:06:26;;;;;;;23.00;10.60;;;;;;;10.37;100.00;101762.06;6191802;23;20147;-76
2022/10/30 06:08:52;;;;;;;23.98;9.85;;;;;;;10.34;100.00;101755.66;6192244;23;20447;-75
2022/10/30 06:11:37;;;;;;;17.35;9.75;;;;;;;10.37;100.00;101749.50;6219620;23;20116;-75
2022/10/30 06:14:05;;;;;;;25.60;10.45;;;;;;;10.41;100.00;101757.38;6192081;23;20406;-75
2022/10/30 06:16:38;;;;;;;22.02;10.77;;;;;;;10.42;100.00;101753.56;6192742;23;20187;-75
2022/10/30 06:19:21;;;;;;;17.48;9.70;;;;;;;10.41;100.00;101760.06;6192308;23;20370;-75
2022/10/30 06:21:50;;;;;;;17.40;9.25;;;;;;;10.41;100.00;101757.38;6191345;23;20021;-75
2022/10/30 06:24:26;;;;;;;12.85;10.05;;;;;;;10.38;100.00;101761.66;6192442;23;20091;-75
2022/10/30 06:27:27;;;;;;;19.33;9.52;;;;;;;10.36;100.00;101769.28;6195825;23;20021;-75
2022/10/30 06:29:54;;;;;;;13.00;9.13;;;;;;;10.32;100.00;101774.69;6191675;23;20517;-75
2022/10/30 06:32:21;;;;;;;21.67;9.38;;;;;;;10.29;100.00;101782.75;6191849;23;20021;-75
2022/10/30 06:34:48;;;;;;;16.25;8.77;;;;;;;10.26;100.00;101775.59;6191263;23;20104;-75
2022/10/30 06:37:16;;;;;;;15.98;8.15;;;;;;;10.24;100.00;101770.69;6191682;23;20075;-75
2022/10/30 06:39:43;;;;;;;18.50;9.10;;;;;;;10.20;100.00;101766.59;6218947;23;20028;-75
2022/10/30 06:42:46;;;;;;;14.65;8.82;;;;;;;10.18;100.00;101764.31;6126515;23;20125;-75
2022/10/30 06:45:33;;;;;;;11.38;8.70;;;;;;;10.23;100.00;101774.50;6121215;23;20027;-75
2022/10/30 06:48:00;;;;;;;11.80;8.25;;;;;;;10.22;100.00;101773.00;6121920;23;20029;-75
2022/10/30 06:50:33;;;;;;;11.25;8.35;;;;;;;10.23;100.00;101777.16;6130546;23;20022;-76
2022/10/30 06:52:59;;;;;;;9.07;7.82;;;;;;;10.20;100.00;101770.00;6130787;23;20026;-75
2022/10/30 06:55:27;;;;;;;13.77;7.90;;;;;;;10.26;100.00;101778.25;6131043;23;20070;-75
2022/10/30 06:58:08;;;;;;;14.10;7.75;;;;;;;10.26;100.00;101780.91;6131656;23;20101;-75
2022/10/30 07:01:10;;;;;;;15.30;8.18;;;;;;;10.26;100.00;101786.22;6132258;23;20022;-76
2022/10/30 07:03:55;;;;;;;14.48;8.23;;;;;;;10.26;100.00;101786.97;6156894;23;20022;-76
2022/10/30 07:06:22;;;;;;;12.38;8.30;;;;;;;10.24;100.00;101788.56;6130170;23;20485;-75
2022/10/30 07:08:48;;;;;;;11.60;8.43;;;;;;;10.22;100.00;101785.56;6155399;23;20478;-76
2022/10/30 07:11:15;;;;;;;13.82;7.88;;;;;;;10.21;100.00;101779.47;6130111;23;20025;-75
2022/10/30 07:13:56;;;;;;;13.00;8.13;;;;;;;10.28;100.00;101787.31;6130231;23;20093;-75
2022/10/30 07:16:45;;;;;;;13.73;7.60;;;;;;;10.30;100.00;101776.25;6069444;23;20172;-76
2022/10/30 07:19:12;;;;;;;14.52;7.72;;;;;;;10.27;100.00;101769.84;6093707;23;20022;-75
2022/10/30 07:21:39;;;;;;;11.20;7.38;;;;;;;10.32;100.00;101774.69;6103801;23;20022;-76
2022/10/30 07:24:06;;;;;;;14.65;8.02;;;;;;;10.41;100.00;101774.13;6128287;23;20337;-76
2022/10/30 07:26:48;;;;;;;15.32;7.80;;;;;;;10.45;100.00;101787.34;6103795;23;20026;-77
2022/10/30 07:29:36;;;;;;;16.95;7.57;;;;;;;10.49;100.00;101785.38;6104052;23;20015;-76
2022/10/30 07:32:18;;;;;;;;;;;;;;;10.57;100.00;101787.47;6104447;23;20014;-76
2022/10/30 07:34:50;;;;;;;10.23;7.07;;;;;;;10.64;100.00;101781.25;6127852;23;19921;-76
2022/10/30 07:37:34;;;;;;;12.50;7.88;;;;;;;10.72;100.00;101779.91;6128524;23;20027;-78
2022/10/30 07:40:07;;;;;;;13.50;8.05;;;;;;;10.79;100.00;101768.38;6103771;23;20053;-76
2022/10/30 07:43:04;;;;;;;16.55;8.10;;;;;;;10.89;100.00;101772.66;6126634;23;20476;-76
2022/10/30 07:45:51;;;;;;;11.98;8.18;;;;;;;10.99;100.00;101774.34;6104084;23;20502;-77
2022/10/30 07:48:34;;;;;;;13.30;8.73;;;;;;;11.09;100.00;101769.94;6102888;23;20578;-78
2022/10/30 07:51:19;;;;;;;15.73;8.43;;;;;;;11.13;100.00;101766.03;6104043;23;20019;-76
2022/10/30 07:53:46;;;;;;;16.55;8.80;;;;;;;11.18;100.00;101765.53;6145680;23;20448;-76
2022/10/30 07:56:14;;;;;;;10.18;8.48;;;;;;;11.25;100.00;101762.66;6193745;23;20048;-76
2022/10/30 07:58:52;;;;;;;12.23;8.43;;;;;;;11.35;100.00;101763.56;6221013;23;20044;-76
2022/10/30 08:01:44;;;;;;;11.57;8.63;;;;;;;11.47;100.00;101757.53;6193751;23;20017;-75
2022/10/30 08:04:31;;;;;;;12.50;9.00;;;;;;;11.61;100.00;101767.06;6219400;23;20116;-77
2022/10/30 08:07:07;;;;;;;12.85;9.02;;;;;;;11.68;100.00;101766.88;6193674;23;20052;-76
2022/10/30 08:09:34;;;;;;;16.80;9.95;;;;;;;11.81;100.00;101780.31;6194011;23;20076;-76
2022/10/30 08:12:01;;;;;;;19.50;10.00;;;;;;;11.91;100.00;101780.03;6193846;23;20017;-76
2022/10/30 08:14:27;;;;;;;15.25;10.38;;;;;;;12.02;100.00;101774.38;6193588;23;20022;-76
2022/10/30 08:16:54;;;;;;;19.00;10.90;;;;;;;12.10;100.00;101773.00;6192939;23;20024;-75
2022/10/30 08:19:21;;;;;;;20.95;10.68;;;;;;;12.20;100.00;101773.88;6193606;23;20053;-76
2022/10/30 08:21:47;;;;;;;22.58;11.75;;;;;;;12.27;100.00;101777.09;6193406;23;20021;-75
2022/10/30 08:24:17;;;;;;;24.17;12.27;;;;;;;12.37;100.00;101774.56;6192132;23;20028;-76
2022/10/30 08:26:46;;;;;;;19.25;11.98;;;;;;;12.46;100.00;101766.63;6167939;23;20017;-76
2022/10/30 08:29:14;;;;;;;18.25;11.35;;;;;;;12.56;100.00;101769.00;6192609;23;20418;-76
2022/10/30 08:31:42;;;;;;;16.65;12.75;;;;;;;12.66;100.00;101775.94;6191759;23;20036;-76
2022/10/30 08:34:15;;;;;;;24.00;12.77;;;;;;;12.77;100.00;101774.88;6220083;23;20051;-76
2022/10/30 08:36:53;;;;;;;21.67;13.98;;;;;;;12.89;100.00;101769.47;6192542;23;20473;-76
2022/10/30 08:39:19;;;;;;;26.48;15.23;;;;;;;13.01;100.00;101776.75;6192756;23;20445;-76
2022/10/30 08:42:06;;;;;;;23.50;13.82;;;;;;;13.14;100.00;101774.06;6192938;23;20100;-75
2022/10/30 08:44:39;;;;;;;25.40;14.25;;;;;;;13.26;100.00;101775.19;6192797;23;20455;-75
2022/10/30 08:47:15;;;;;;;22.88;12.95;;;;;;;13.37;100.00;101770.25;6219141;23;20024;-77
2022/10/30 08:49:41;;;;;;;26.88;13.57;;;;;;;13.48;100.00;101770.66;6191316;23;20100;-77
2022/10/30 08:52:09;;;;;;;23.85;13.57;;;;;;;13.57;100.00;101772.66;6192335;23;20100;-76
2022/10/30 08:54:36;;;;;;;17.35;12.27;;;;;;;13.63;100.00;101779.66;6192393;23;20107;-76
2022/10/30 08:57:03;;;;;;;25.92;12.52;;;;;;;13.69;100.00;101779.84;6219603;23;20060;-77
2022/10/30 08:59:30;;;;;;;19.52;12.10;;;;;;;13.80;100.00;101779.47;6192785;23;20057;-76
2022/10/30 09:01:58;;;;;;;19.88;12.73;;;;;;;13.87;100.00;101774.63;6191552;23;20088;-76
2022/10/30 09:05:04;;;;;;;21.65;12.70;;;;;;;13.99;100.00;101768.44;6219647;23;20466;-78
2022/10/30 09:07:59;;;;;;;19.77;12.60;;;;;;;14.13;100.00;101769.13;6182722;23;20021;-77
2022/10/30 09:10:47;;;;;;;28.02;12.73;;;;;;;14.19;100.00;101778.81;6218973;23;20100;-77
2022/10/30 09:13:14;;;;;;;16.92;11.48;;;;;;;14.28;100.00;101775.44;6192549;23;20047;-76
2022/10/30 09:15:42;;;;;;;25.73;12.32;;;;;;;14.38;100.00;101776.25;6191510;23;20469;-77
2022/10/30 09:18:09;;;;;;;23.98;13.00;;;;;;;14.46;100.00;101772.09;6219708;23;20019;-78
2022/10/30 09:20:37;;;;;;;24.50;12.48;;;;;;;14.57;100.00;101759.06;6192468;23;20033;-79
2022/10/30 09:23:03;;;;;;;20.33;12.80;;;;;;;14.63;100.00;101754.63;6192704;23;20026;-75
2022/10/30 09:25:30;;;;;;;22.13;12.60;;;;;;;14.68;100.00;101749.41;6192446;23;20021;-75
2022/10/30 09:28:06;;;;;;;27.05;12.32;;;;;;;14.80;99.76;101750.47;6192382;23;20419;-77
2022/10/30 09:30:55;;;;;;;30.63;14.15;;;;;;;14.91;99.27;101748.09;6191397;23;20083;-76
2022/10/30 09:33:22;;;;;;;20.45;12.52;;;;;;;15.00;98.37;101747.38;6192453;23;20076;-75
2022/10/30 09:36:11;;;;;;;36.53;14.07;;;;;;;15.12;97.66;101746.50;6218731;23;20021;-75
2022/10/30 09:38:44;;;;;;;25.63;12.60;;;;;;;15.22;97.19;101761.38;6218970;23;20017;-75
2022/10/30 09:41:38;;;;;;;20.33;12.15;;;;;;;15.29;97.27;101760.34;6192247;23;20060;-76
2022/10/30 09:44:05;;;;;;;23.10;11.48;;;;;;;15.40;96.56;101767.97;6192347;23;20052;-76
2022/10/30 09:46:59;;;;;;;24.13;10.95;;;;;;;15.48;97.21;101780.63;6167563;23;20514;-75
2022/10/30 09:49:30;;;;;;;24.85;11.23;;;;;;;15.53;97.32;101777.34;6192412;23;20466;-77
2022/10/30 09:52:29;;;;;;;26.33;10.90;;;;;;;15.64;96.92;101783.03;6191933;23;20032;-75
2022/10/30 09:55:03;;;;;;;21.08;10.85;;;;;;;15.61;96.85;101780.47;6165190;23;20016;-76
2022/10/30 09:57:58;;;;;;;20.58;11.00;;;;;;;15.59;96.32;101783.66;6192817;23;20478;-75
2022/10/30 10:00:42;;;;;;;20.70;11.23;;;;;;;15.56;96.67;101792.59;6192162;23;20072;-77
2022/10/30 10:03:41;;;;;;;18.27;10.07;;;;;;;15.56;96.97;101792.59;6192467;23;20021;-77
2022/10/30 10:06:27;;;;;;;20.13;10.48;;;;;;;15.58;96.52;101792.13;6219467;23;20028;-76
2022/10/30 10:09:23;;;;;;;23.00;10.52;;;;;;;15.64;96.55;101785.69;6214558;23;20433;-77
2022/10/30 10:12:34;;;;;;;20.27;10.32;;;;;;;15.78;96.38;101778.25;6192229;23;20029;-76
2022/10/30 10:15:09;;;;;;;22.38;10.68;;;;;;;15.95;95.69;101785.53;6217171;23;20539;-77
2022/10/30 10:17:40;;;;;;;18.88;10.18;;;;;;;16.14;94.36;101775.47;6218810;23;20013;-76
2022/10/30 10:20:16;;;;;;;37.57;10.83;;;;;;;16.31;93.48;101779.28;6219337;23;20473;-76
2022/10/30 10:22:50;;;;;;;22.17;9.93;;;;;;;16.42;92.37;101773.41;6218915;23;20300;-76
2022/10/30 10:25:19;;;;;;;21.38;11.02;;;;;;;16.49;91.22;101775.75;6219411;23;20017;-76
2022/10/30 10:27:57;;;;;;;22.25;10.10;;;;;;;16.51;91.26;101778.75;6191177;23;20396;-77
2022/10/30 10:30:33;;;;;;;29.98;11.23;;;;;;;16.53;91.69;101779.03;6192627;23;20419;-76
2022/10/30 10:33:19;;;;;;;23.50;10.80;;;;;;;16.60;91.52;101784.06;6218587;23;20029;-76
2022/10/30 10:36:04;;;;;;;16.83;9.35;;;;;;;16.66;91.10;101784.97;6191920;23;20021;-76
2022/10/30 10:38:52;;;;;;;20.73;10.30;;;;;;;16.72;91.28;101779.72;6219227;23;20052;-78
2022/10/30 10:41:50;;;;;;;15.93;10.23;;;;;;;16.77;90.60;101779.09;6219233;23;20088;-78
2022/10/30 10:44:25;;;;;;;14.32;10.05;;;;;;;16.84;90.02;101784.13;6192192;23;20036;-76
2022/10/30 10:47:16;;;;;;;16.83;10.05;;;;;;;16.86;90.33;101775.59;6218390;23;20045;-75
2022/10/30 10:49:42;;;;;;;19.38;10.68;;;;;;;16.88;90.47;101781.25;6218566;23;20166;-75
2022/10/30 10:52:15;;;;;;;21.20;10.45;;;;;;;16.94;89.15;101777.47;6219914;23;20088;-75
2022/10/30 10:54:51;;;;;;;23.85;10.98;;;;;;;17.03;89.02;101781.31;6219949;23;20040;-74
2022/10/30 10:57:35;;;;;;;23.73;11.10;;;;;;;17.11;89.19;101774.41;6219681;23;21127;-77
2022/10/30 11:00:12;;;;;;;21.75;10.20;;;;;;;17.18;87.70;101780.16;6219544;23;20096;-78
2022/10/30 11:03:08;;;;;;;20.17;10.18;;;;;;;17.24;87.79;101778.31;6219741;23;20017;-78
2022/10/30 11:05:49;;;;;;;24.95;11.48;;;;;;;17.26;88.34;101778.59;6219679;23;20019;-78
2022/10/30 11:08:24;;;;;;;24.63;11.13;;;;;;;17.26;87.04;101781.28;6220568;23;20402;-79
2022/10/30 11:11:02;;;;;;;22.35;10.40;;;;;;;17.34;86.60;101778.97;6192707;23;20088;-76
2022/10/30 11:13:37;;;;;;;22.30;10.60;;;;;;;17.44;86.41;101771.59;6220525;23;20088;-76
2022/10/30 11:16:32;;;;;;;24.88;11.00;;;;;;;17.53;86.11;101766.13;6220425;23;20464;-76
2022/10/30 11:19:01;;;;;;;21.00;11.07;;;;;;;17.59;84.87;101764.28;6205829;23;20371;-77
2022/10/30 11:21:32;;;;;;;24.23;10.48;;;;;;;17.65;84.37;101755.09;6220352;23;20013;-77
2022/10/30 11:23:58;;;;;;;28.52;11.05;;;;;;;17.70;84.55;101755.66;6193026;23;20384;-77
2022/10/30 11:26:29;;;;;;;19.75;10.00;;;;;;;17.73;84.27;101749.34;6219492;23;20036;-77
2022/10/30 11:29:13;;;;;;;20.65;9.98;;;;;;;17.78;83.69;101752.13;6193316;23;20406;-78
2022/10/30 11:31:42;;;;;;;25.35;9.60;;;;;;;17.80;83.08;101746.28;6219507;23;20017;-77
2022/10/30 11:34:17;;;;;;;29.90;10.00;;;;;;;17.82;82.62;101743.88;6219906;23;20019;-77
2022/10/30 11:36:46;;;;;;;21.73;10.82;;;;;;;17.83;82.31;101732.63;6219908;23;20097;-77
2022/10/30 11:39:24;;;;;;;21.00;10.70;;;;;;;17.89;83.56;101738.84;6220093;23;20468;-77
2022/10/30 11:42:00;;;;;;;19.25;10.85;;;;;;;17.90;82.56;101732.25;6219262;23;20090;-77